Time;durP1;ratioP1;P1;durP2;ratioP2;P2;SDS_P1;SDS_P2;PMS_P1;PMS_P2;Temp;Humidity;BMP_temperature;BMP_pressure;BME280_temperature;BME280_humidity;BME280_pressure;Samples;Min_cycle;Max_cycle;Signal;HPM_P1;HPM_P2
2021/05/05 00:02:24;;;;;;;2.70;1.40;;;11.00;90.50;;;;;;5076640;28;20038;-68
2021/05/05 00:04:56;;;;;;;4.40;1.50;;;11.00;90.50;;;;;;5059674;28;20468;-68
2021/05/05 00:07:41;;;;;;;3.35;1.58;;;11.00;90.60;;;;;;5070334;28;20083;-68
2021/05/05 00:10:26;;;;;;;4.18;1.52;;;11.00;90.60;;;;;;5057114;28;20051;-69
2021/05/05 00:13:10;;;;;;;2.90;1.23;;;11.00;90.70;;;;;;5084486;28;20462;-68
2021/05/05 00:15:54;;;;;;;2.80;1.38;;;11.00;90.70;;;;;;5057096;28;20131;-70
2021/05/05 00:18:38;;;;;;;1.98;1.30;;;11.00;90.70;;;;;;5088387;28;20038;-70
2021/05/05 00:21:22;;;;;;;3.10;1.23;;;11.00;90.70;;;;;;5071136;28;20058;-70
2021/05/05 00:24:07;;;;;;;2.15;1.23;;;11.00;90.70;;;;;;5050458;28;20086;-69
2021/05/05 00:26:51;;;;;;;5.15;1.65;;;11.00;90.70;;;;;;5059172;28;20043;-70
2021/05/05 00:29:35;;;;;;;3.40;1.40;;;11.00;90.60;;;;;;5070804;28;20443;-71
2021/05/05 00:32:19;;;;;;;4.00;1.33;;;11.00;90.60;;;;;;5078061;28;20035;-69
2021/05/05 00:35:05;;;;;;;2.42;1.40;;;11.00;90.60;;;;;;5065863;28;20635;-70
2021/05/05 00:37:50;;;;;;;2.17;1.42;;;11.00;90.60;;;;;;5046606;28;20055;-69
2021/05/05 00:40:34;;;;;;;4.10;1.38;;;10.90;90.60;;;;;;5071657;28;20946;-69
2021/05/05 00:43:18;;;;;;;2.42;1.52;;;10.90;90.70;;;;;;5070390;28;20035;-69
2021/05/05 00:46:03;;;;;;;2.13;1.27;;;10.90;90.60;;;;;;5071826;28;20067;-70
2021/05/05 00:48:47;;;;;;;;;;;10.90;90.60;;;;;;5080865;28;20062;-70
2021/05/05 00:51:31;;;;;;;4.20;1.50;;;10.90;90.40;;;;;;5070028;28;20360;-70
2021/05/05 00:54:15;;;;;;;3.85;1.33;;;10.80;90.50;;;;;;5071330;28;20082;-70
2021/05/05 00:57:00;;;;;;;3.53;1.30;;;10.90;90.70;;;;;;5072761;28;20026;-70
2021/05/05 00:59:45;;;;;;;4.93;1.30;;;10.80;90.70;;;;;;5095519;28;20129;-70
2021/05/05 01:02:30;;;;;;;;;;;10.80;90.80;;;;;;5080917;28;20056;-70
2021/05/05 01:05:15;;;;;;;2.47;1.38;;;10.70;90.70;;;;;;5075548;28;20375;-69
2021/05/05 01:07:59;;;;;;;2.53;1.30;;;10.70;90.80;;;;;;5073409;28;20523;-70
2021/05/05 01:10:44;;;;;;;2.65;1.50;;;10.70;90.90;;;;;;5074335;28;20463;-70
2021/05/05 01:13:29;;;;;;;;;;;10.60;90.90;;;;;;5075704;28;20034;-70
2021/05/05 01:16:15;;;;;;;3.15;1.40;;;10.60;90.70;;;;;;5091932;28;20352;-69
2021/05/05 01:18:59;;;;;;;3.22;1.70;;;10.60;90.90;;;;;;5055557;28;20516;-69
2021/05/05 01:21:43;;;;;;;2.03;1.25;;;10.60;90.90;;;;;;5060110;28;20167;-69
2021/05/05 01:24:28;;;;;;;4.78;1.73;;;10.60;90.90;;;;;;5066358;28;20211;-69
2021/05/05 01:27:12;;;;;;;2.63;1.60;;;10.60;90.90;;;;;;5068341;28;20040;-70
2021/05/05 01:29:56;;;;;;;4.32;1.52;;;10.70;90.90;;;;;;5074906;28;20124;-70
2021/05/05 01:32:40;;;;;;;3.63;1.20;;;10.60;90.90;;;;;;5073406;28;20094;-70
2021/05/05 01:35:24;;;;;;;4.15;1.40;;;10.70;90.90;;;;;;5080875;28;20091;-70
2021/05/05 01:38:09;;;;;;;2.72;1.38;;;10.60;90.90;;;;;;5095285;28;20038;-69
2021/05/05 01:40:54;;;;;;;3.08;1.30;;;10.60;90.80;;;;;;5081612;28;20050;-69
2021/05/05 01:43:38;;;;;;;3.63;1.50;;;10.60;90.80;;;;;;5092009;28;20053;-70
2021/05/05 01:46:23;;;;;;;4.25;1.30;;;10.50;90.80;;;;;;5090380;28;20085;-69
2021/05/05 01:49:07;;;;;;;;;;;10.50;90.80;;;;;;5072847;28;20153;-70
2021/05/05 01:51:57;;;;;;;2.75;1.25;;;10.50;90.70;;;;;;5072813;28;19915;-71
2021/05/05 01:54:41;;;;;;;3.35;1.73;;;10.40;90.70;;;;;;5074637;28;20043;-70
2021/05/05 01:57:28;;;;;;;6.38;1.77;;;10.40;90.80;;;;;;5094427;28;20042;-71
2021/05/05 02:00:15;;;;;;;4.80;1.63;;;10.40;90.80;;;;;;5070407;28;20050;-71
2021/05/05 02:03:00;;;;;;;3.90;1.27;;;10.40;90.90;;;;;;5074181;28;20035;-70
2021/05/05 02:05:44;;;;;;;3.30;1.52;;;10.30;91.00;;;;;;5078691;28;20446;-70
2021/05/05 02:08:28;;;;;;;5.28;1.63;;;10.30;91.00;;;;;;5091550;28;20080;-70
2021/05/05 02:11:12;;;;;;;3.47;1.52;;;10.40;91.10;;;;;;5072988;28;20071;-70
2021/05/05 02:13:56;;;;;;;4.40;1.35;;;10.40;91.10;;;;;;5067706;28;20516;-70
2021/05/05 02:16:40;;;;;;;3.78;1.65;;;10.40;91.10;;;;;;5053684;28;20048;-69
2021/05/05 02:19:24;;;;;;;2.50;1.60;;;10.40;91.20;;;;;;5062638;28;20047;-70
2021/05/05 02:22:09;;;;;;;4.13;1.50;;;10.40;91.10;;;;;;5094077;28;20034;-70
2021/05/05 02:24:53;;;;;;;3.00;1.60;;;10.50;91.10;;;;;;5061339;28;20401;-70
2021/05/05 02:27:38;;;;;;;3.67;1.50;;;10.50;91.00;;;;;;5069059;28;20111;-70
2021/05/05 02:30:22;;;;;;;3.17;1.48;;;10.50;91.00;;;;;;5072546;28;20035;-70
2021/05/05 02:33:07;;;;;;;4.05;1.48;;;10.50;91.00;;;;;;5088968;28;20119;-70
2021/05/05 02:35:51;;;;;;;3.88;1.50;;;10.50;91.00;;;;;;5072517;28;20040;-70
2021/05/05 02:38:35;;;;;;;7.15;2.05;;;10.50;90.90;;;;;;5072788;28;20499;-70
2021/05/05 02:41:19;;;;;;;3.13;1.35;;;10.40;90.90;;;;;;5055037;28;20143;-70
2021/05/05 02:44:04;;;;;;;5.18;1.67;;;10.40;90.90;;;;;;5056751;28;20048;-70
2021/05/05 02:46:49;;;;;;;4.80;1.98;;;10.40;90.80;;;;;;5053271;28;20036;-69
2021/05/05 02:49:33;;;;;;;6.47;1.83;;;10.40;90.90;;;;;;5071697;28;20116;-69
2021/05/05 02:52:18;;;;;;;3.75;1.58;;;10.40;90.90;;;;;;5093565;28;20074;-69
2021/05/05 02:55:03;;;;;;;3.78;1.60;;;10.40;90.90;;;;;;5059889;28;20080;-69
2021/05/05 02:57:47;;;;;;;5.40;1.63;;;10.40;90.80;;;;;;5070357;28;20417;-69
2021/05/05 03:00:31;;;;;;;5.28;1.77;;;10.30;90.70;;;;;;5073605;28;20123;-69
2021/05/05 03:03:15;;;;;;;4.53;1.73;;;10.30;90.70;;;;;;5077170;28;20043;-69
2021/05/05 03:05:59;;;;;;;6.20;2.03;;;10.30;90.70;;;;;;5082773;28;20448;-69
2021/05/05 03:08:43;;;;;;;5.82;1.75;;;10.30;90.80;;;;;;5079873;28;20163;-68
2021/05/05 03:11:27;;;;;;;5.35;1.85;;;10.20;90.80;;;;;;5070556;28;20123;-68
2021/05/05 03:14:11;;;;;;;6.25;1.85;;;10.20;90.80;;;;;;5071804;28;20098;-68
2021/05/05 03:16:57;;;;;;;5.65;1.98;;;10.20;90.80;;;;;;5053475;28;20113;-69
2021/05/05 03:19:40;;;;;;;5.22;1.70;;;10.20;90.80;;;;;;5070454;28;20112;-69
2021/05/05 03:22:24;;;;;;;7.63;2.28;;;10.10;90.80;;;;;;5071983;28;20389;-69
2021/05/05 03:25:09;;;;;;;8.00;2.22;;;10.10;90.80;;;;;;5072795;28;20058;-69
2021/05/05 03:27:53;;;;;;;3.30;1.67;;;10.10;90.90;;;;;;5061155;28;20159;-68
2021/05/05 03:30:38;;;;;;;4.53;1.75;;;10.10;90.80;;;;;;5063840;28;20443;-68
2021/05/05 03:33:22;;;;;;;5.35;1.70;;;10.10;90.90;;;;;;5071937;28;20071;-69
2021/05/05 03:36:06;;;;;;;5.28;2.30;;;10.10;90.90;;;;;;5070063;28;20106;-69
2021/05/05 03:38:50;;;;;;;6.95;2.05;;;10.00;90.90;;;;;;5072209;28;20070;-68
2021/05/05 03:41:34;;;;;;;5.40;1.90;;;10.00;91.00;;;;;;5070852;28;20148;-69
2021/05/05 03:44:18;;;;;;;5.30;1.80;;;10.00;91.00;;;;;;5070018;28;20039;-69
2021/05/05 03:47:02;;;;;;;5.60;1.70;;;10.00;91.00;;;;;;5075387;28;20515;-69
2021/05/05 03:49:46;;;;;;;6.53;1.60;;;10.10;91.00;;;;;;5074472;28;20430;-69
2021/05/05 03:52:30;;;;;;;5.18;1.92;;;10.10;91.00;;;;;;5051762;28;20086;-70
2021/05/05 03:55:15;;;;;;;3.25;1.52;;;10.10;91.00;;;;;;5059246;28;20079;-69
2021/05/05 03:57:59;;;;;;;4.78;1.70;;;10.10;90.90;;;;;;5071783;28;20507;-69
2021/05/05 04:00:44;;;;;;;4.38;1.65;;;10.20;90.90;;;;;;5054495;28;20649;-69
2021/05/05 04:03:28;;;;;;;6.30;1.65;;;10.20;90.80;;;;;;5071736;28;20550;-70
2021/05/05 04:06:12;;;;;;;4.72;1.80;;;10.20;90.80;;;;;;5070065;28;20040;-70
2021/05/05 04:08:56;;;;;;;4.75;1.63;;;10.20;90.70;;;;;;5071659;28;20040;-69
2021/05/05 04:11:40;;;;;;;4.00;1.63;;;10.20;90.60;;;;;;5071754;28;20044;-69
2021/05/05 04:14:24;;;;;;;3.67;1.92;;;10.20;90.60;;;;;;5069941;28;20091;-69
2021/05/05 04:17:08;;;;;;;5.03;1.80;;;10.30;90.70;;;;;;5056492;28;20545;-69
2021/05/05 04:19:55;;;;;;;4.73;1.93;;;10.30;90.40;;;;;;5066169;28;20551;-69
2021/05/05 04:22:39;;;;;;;2.47;1.42;;;10.30;90.30;;;;;;5071629;28;20501;-70
2021/05/05 04:25:23;;;;;;;5.03;2.30;;;10.30;90.10;;;;;;5068914;28;20159;-71
2021/05/05 04:28:08;;;;;;;3.38;1.90;;;10.40;89.90;;;;;;5051614;28;20040;-71
2021/05/05 04:30:53;;;;;;;4.45;1.48;;;10.40;89.60;;;;;;5064394;28;20523;-71
2021/05/05 04:33:39;;;;;;;5.28;1.45;;;10.40;89.20;;;;;;5071384;28;20058;-71
2021/05/05 04:36:23;;;;;;;4.25;1.55;;;10.50;88.70;;;;;;5069500;28;20535;-71
2021/05/05 04:39:07;;;;;;;3.85;1.38;;;10.50;88.40;;;;;;5070196;28;20031;-70
2021/05/05 04:41:51;;;;;;;4.03;1.55;;;10.50;88.00;;;;;;5070767;28;20464;-71
2021/05/05 04:44:35;;;;;;;5.28;1.80;;;10.60;87.50;;;;;;5078139;28;20059;-70
2021/05/05 04:47:19;;;;;;;2.47;1.50;;;10.60;87.10;;;;;;5051318;28;20040;-70
2021/05/05 04:50:06;;;;;;;2.92;1.55;;;10.70;86.70;;;;;;5058555;28;20035;-70
2021/05/05 04:52:50;;;;;;;4.78;1.50;;;10.70;86.40;;;;;;5071340;28;20102;-70
2021/05/05 04:55:34;;;;;;;4.68;1.38;;;10.80;86.00;;;;;;5079881;28;20486;-69
2021/05/05 04:58:19;;;;;;;4.63;1.73;;;10.80;85.80;;;;;;5091630;28;20035;-70
2021/05/05 05:01:03;;;;;;;4.72;1.60;;;10.80;85.10;;;;;;5055533;28;20179;-70
2021/05/05 05:03:47;;;;;;;4.35;1.45;;;10.90;85.00;;;;;;5051227;28;20159;-70
2021/05/05 05:06:31;;;;;;;3.95;1.50;;;10.90;84.70;;;;;;5070394;28;20063;-69
2021/05/05 05:09:15;;;;;;;3.70;1.60;;;10.90;84.50;;;;;;5069030;28;20034;-70
2021/05/05 05:12:00;;;;;;;3.45;1.60;;;11.00;84.20;;;;;;5072633;28;20150;-69
2021/05/05 05:14:43;;;;;;;4.47;1.77;;;11.00;83.80;;;;;;5050821;28;20047;-70
2021/05/05 05:17:27;;;;;;;6.38;1.52;;;11.10;83.70;;;;;;5070952;28;20392;-70
2021/05/05 05:20:11;;;;;;;4.25;1.50;;;11.10;83.30;;;;;;5076785;28;20506;-70
2021/05/05 05:22:55;;;;;;;5.38;1.70;;;11.10;83.20;;;;;;5091284;28;20050;-70
2021/05/05 05:25:39;;;;;;;3.63;1.80;;;11.20;82.90;;;;;;5066861;28;20689;-70
2021/05/05 05:28:24;;;;;;;4.03;1.55;;;11.20;82.80;;;;;;5070365;28;20067;-70
2021/05/05 05:31:08;;;;;;;4.90;1.80;;;11.30;82.30;;;;;;5085001;28;20495;-70
2021/05/05 05:33:53;;;;;;;6.65;1.70;;;11.30;81.60;;;;;;5071635;28;20083;-70
2021/05/05 05:36:38;;;;;;;8.77;1.85;;;11.30;81.20;;;;;;5075871;28;20044;-70
2021/05/05 05:39:22;;;;;;;6.60;1.60;;;11.40;81.20;;;;;;5065888;28;20392;-71
2021/05/05 05:42:07;;;;;;;7.22;1.90;;;11.40;80.80;;;;;;5090807;28;20039;-72
2021/05/05 05:44:51;;;;;;;4.55;1.85;;;11.50;80.90;;;;;;5075137;28;20154;-72
2021/05/05 05:47:35;;;;;;;4.07;1.50;;;11.50;80.50;;;;;;5059058;28;20141;-71
2021/05/05 05:50:20;;;;;;;6.43;1.92;;;11.50;80.20;;;;;;5071167;28;20063;-72
2021/05/05 05:53:05;;;;;;;5.57;1.50;;;11.50;79.90;;;;;;5073928;28;20047;-72
2021/05/05 05:55:50;;;;;;;4.00;1.65;;;11.60;79.80;;;;;;5085544;28;20042;-72
2021/05/05 05:58:34;;;;;;;;;;;11.50;79.70;;;;;;5090344;28;20039;-72
2021/05/05 06:01:18;;;;;;;6.57;1.80;;;11.50;79.80;;;;;;5057542;28;20292;-71
2021/05/05 06:04:02;;;;;;;4.35;1.63;;;11.50;79.50;;;;;;5073547;28;20064;-72
2021/05/05 06:06:46;;;;;;;3.50;1.63;;;11.50;79.40;;;;;;5054186;28;20051;-74
2021/05/05 06:09:30;;;;;;;4.03;1.77;;;11.50;79.10;;;;;;5062940;28;20389;-72
2021/05/05 06:12:15;;;;;;;4.68;1.70;;;11.50;78.70;;;;;;5074565;28;20071;-70
2021/05/05 06:14:59;;;;;;;3.15;1.80;;;11.60;78.40;;;;;;5072289;28;20043;-70
2021/05/05 06:17:43;;;;;;;5.13;1.63;;;11.70;78.30;;;;;;5093370;28;20027;-73
2021/05/05 06:20:27;;;;;;;4.15;1.83;;;11.80;78.20;;;;;;5081416;28;20499;-72
2021/05/05 06:23:11;;;;;;;4.45;1.88;;;11.80;77.40;;;;;;5097010;28;20391;-73
2021/05/05 06:25:56;;;;;;;3.10;1.70;;;11.80;77.50;;;;;;5074157;28;20039;-71
2021/05/05 06:28:40;;;;;;;5.32;1.50;;;11.80;77.40;;;;;;5075748;28;20047;-71
2021/05/05 06:31:25;;;;;;;3.92;1.60;;;11.90;77.00;;;;;;5075695;28;20051;-71
2021/05/05 06:34:09;;;;;;;4.20;1.58;;;11.90;76.50;;;;;;5086913;28;20097;-71
2021/05/05 06:36:54;;;;;;;4.13;1.83;;;12.00;75.40;;;;;;5066893;28;20048;-71
2021/05/05 06:39:37;;;;;;;3.22;1.60;;;12.00;75.00;;;;;;5081176;28;20042;-71
2021/05/05 06:42:21;;;;;;;3.72;1.85;;;12.10;75.00;;;;;;5074527;28;20056;-69
2021/05/05 06:45:06;;;;;;;4.15;1.75;;;12.10;74.00;;;;;;5071574;28;20050;-69
2021/05/05 06:47:32;;;;;;;5.03;1.67;;;12.20;73.20;;;;;;5073282;28;20021;-69
2021/05/05 06:49:57;;;;;;;2.90;1.25;;;12.30;72.40;;;;;;5071453;28;20116;-70
2021/05/05 06:52:23;;;;;;;2.33;1.40;;;12.40;71.50;;;;;;5072962;28;20060;-69
2021/05/05 06:54:49;;;;;;;5.43;1.83;;;12.50;70.90;;;;;;5074386;28;20040;-70
2021/05/05 06:57:14;;;;;;;4.72;2.00;;;12.60;68.90;;;;;;5093170;28;20051;-69
2021/05/05 06:59:40;;;;;;;7.45;2.47;;;12.60;69.20;;;;;;5086167;28;20032;-70
2021/05/05 07:02:06;;;;;;;5.47;1.73;;;12.70;69.40;;;;;;5079415;28;20039;-70
2021/05/05 07:04:34;;;;;;;4.63;1.95;;;12.70;68.20;;;;;;5070622;28;20046;-70
2021/05/05 07:07:00;;;;;;;3.90;1.75;;;12.70;68.00;;;;;;5073208;28;20119;-70
2021/05/05 07:09:25;;;;;;;2.58;1.65;;;12.70;67.60;;;;;;5070981;28;20411;-70
2021/05/05 07:11:51;;;;;;;3.45;2.00;;;12.60;67.50;;;;;;5072584;28;20032;-70
2021/05/05 07:14:16;;;;;;;4.45;1.83;;;12.60;67.30;;;;;;5071667;28;20048;-70
2021/05/05 07:16:43;;;;;;;2.90;1.73;;;12.60;67.40;;;;;;5070752;28;20028;-70
2021/05/05 07:19:08;;;;;;;2.60;1.65;;;12.50;67.70;;;;;;5070586;28;20025;-69
2021/05/05 07:21:34;;;;;;;4.70;2.30;;;12.50;67.30;;;;;;5086061;28;20048;-69
2021/05/05 07:24:00;;;;;;;3.85;2.08;;;12.50;67.30;;;;;;5076584;28;20461;-70
2021/05/05 07:26:27;;;;;;;2.88;1.60;;;12.40;67.70;;;;;;5070343;28;20445;-69
2021/05/05 07:28:52;;;;;;;4.47;2.03;;;12.40;67.70;;;;;;5048482;28;20052;-69
2021/05/05 07:31:19;;;;;;;2.97;1.90;;;12.40;68.00;;;;;;5063829;28;20020;-70
2021/05/05 07:33:45;;;;;;;4.70;1.80;;;12.50;68.40;;;;;;5044128;28;20048;-70
2021/05/05 07:36:16;;;;;;;4.55;2.00;;;12.60;68.30;;;;;;5067914;28;20028;-70
2021/05/05 07:38:53;;;;;;;6.57;1.83;;;12.70;67.60;;;;;;5069910;28;20562;-70
2021/05/05 07:42:06;;;;;;;2.88;1.75;;;12.80;67.40;;;;;;5072044;28;20059;-70
2021/05/05 07:46:59;;;;;;;4.93;2.13;;;13.10;67.10;;;;;;5072524;28;20082;-69
2021/05/05 07:49:25;;;;;;;3.17;1.98;;;13.10;66.40;;;;;;5056699;28;20051;-69
2021/05/05 07:51:52;;;;;;;4.40;1.77;;;13.20;66.30;;;;;;5070356;28;20048;-70
2021/05/05 07:54:18;;;;;;;3.20;1.70;;;13.20;66.30;;;;;;5063249;28;20024;-69
2021/05/05 07:56:45;;;;;;;5.85;1.85;;;13.30;66.10;;;;;;5070818;28;20066;-69
2021/05/05 07:59:11;;;;;;;4.57;1.95;;;13.40;65.70;;;;;;5069694;28;20469;-69
2021/05/05 08:01:38;;;;;;;3.80;2.10;;;13.40;65.00;;;;;;5059356;28;20045;-72
2021/05/05 08:04:05;;;;;;;3.60;1.90;;;13.50;64.70;;;;;;5065271;28;20055;-69
2021/05/05 08:06:30;;;;;;;3.65;1.80;;;13.40;64.30;;;;;;5037280;28;20082;-71
2021/05/05 08:08:56;;;;;;;4.75;2.15;;;13.50;64.10;;;;;;5071942;28;20104;-69
2021/05/05 08:11:23;;;;;;;2.83;1.58;;;13.50;63.80;;;;;;5063188;28;20028;-69
2021/05/05 08:13:49;;;;;;;5.40;1.90;;;13.60;63.60;;;;;;5060377;28;20581;-69
2021/05/05 08:16:15;;;;;;;4.90;1.95;;;13.60;63.70;;;;;;5068522;28;20073;-69
2021/05/05 08:18:41;;;;;;;5.85;1.80;;;13.70;63.80;;;;;;5068517;28;20107;-68
2021/05/05 08:21:08;;;;;;;3.88;2.13;;;13.80;63.60;;;;;;5069334;28;20181;-70
2021/05/05 08:23:34;;;;;;;4.18;1.58;;;13.90;62.50;;;;;;5055824;28;20104;-69
2021/05/05 08:25:59;;;;;;;3.05;1.50;;;14.00;61.70;;;;;;5071469;28;20055;-68
2021/05/05 08:28:25;;;;;;;3.80;1.88;;;14.00;60.80;;;;;;5074233;28;20016;-69
2021/05/05 08:30:51;;;;;;;3.95;1.92;;;14.10;60.70;;;;;;5056483;28;20043;-68
2021/05/05 08:33:18;;;;;;;4.68;2.10;;;14.20;59.90;;;;;;5073646;28;20016;-68
2021/05/05 08:35:43;;;;;;;3.10;1.50;;;14.20;59.60;;;;;;5080329;28;20220;-68
2021/05/05 08:38:09;;;;;;;4.90;1.73;;;14.30;59.60;;;;;;5078838;28;20099;-68
2021/05/05 08:40:34;;;;;;;4.55;1.60;;;14.30;59.10;;;;;;5049352;28;20035;-68
2021/05/05 08:43:00;;;;;;;3.72;1.70;;;14.30;58.80;;;;;;5063124;28;20028;-68
2021/05/05 08:45:28;;;;;;;3.85;1.75;;;14.40;59.50;;;;;;5050529;28;20048;-68
2021/05/05 08:47:57;;;;;;;5.15;2.00;;;14.40;59.10;;;;;;5054341;28;20032;-68
2021/05/05 08:50:25;;;;;;;2.58;1.80;;;14.30;59.30;;;;;;5067901;28;20181;-68
2021/05/05 08:52:51;;;;;;;3.42;1.60;;;14.30;59.40;;;;;;5071131;28;21653;-69
2021/05/05 08:55:19;;;;;;;3.17;1.80;;;14.40;60.10;;;;;;5044163;28;20044;-68
2021/05/05 08:58:04;;;;;;;5.82;1.80;;;14.30;60.20;;;;;;5070778;28;20035;-69
2021/05/05 09:00:48;;;;;;;3.42;2.10;;;14.20;61.80;;;;;;5063316;28;20106;-68
2021/05/05 09:03:33;;;;;;;3.08;1.70;;;14.10;62.50;;;;;;5056493;28;20032;-68
2021/05/05 09:05:59;;;;;;;3.47;1.88;;;14.00;63.20;;;;;;5046574;28;20162;-68
2021/05/05 09:08:49;;;;;;;4.47;1.80;;;14.00;63.80;;;;;;5059790;28;20442;-68
2021/05/05 09:11:46;;;;;;;4.32;1.52;;;14.00;64.10;;;;;;5054829;28;20035;-68
2021/05/05 09:14:30;;;;;;;3.65;2.00;;;14.00;64.80;;;;;;5064452;28;20424;-68
2021/05/05 09:16:57;;;;;;;2.65;1.77;;;14.00;63.40;;;;;;5069978;28;20012;-68
2021/05/05 09:19:22;;;;;;;5.82;1.30;;;14.00;62.00;;;;;;5072606;28;20039;-69
2021/05/05 09:21:51;;;;;;;2.75;1.45;;;13.90;60.40;;;;;;5078451;28;20017;-69
2021/05/05 09:24:27;;;;;;;2.47;1.42;;;13.90;60.30;;;;;;5055655;28;20043;-69
2021/05/05 09:27:06;;;;;;;1.60;1.20;;;14.00;59.40;;;;;;5073836;28;20131;-70
2021/05/05 09:29:49;;;;;;;3.90;1.45;;;14.00;57.60;;;;;;5073435;28;20064;-68
2021/05/05 09:32:17;;;;;;;2.30;1.40;;;14.00;56.80;;;;;;5068758;28;20597;-69
2021/05/05 09:34:58;;;;;;;5.45;2.28;;;14.00;56.80;;;;;;5071691;28;20123;-70
2021/05/05 09:37:25;;;;;;;1.67;1.13;;;14.00;56.50;;;;;;5060719;28;20598;-69
2021/05/05 09:39:59;;;;;;;1.88;1.10;;;14.10;55.90;;;;;;5070817;28;20028;-72
2021/05/05 09:42:32;;;;;;;2.63;1.10;;;14.10;55.70;;;;;;5071148;28;20032;-73
2021/05/05 09:45:00;;;;;;;2.13;1.10;;;14.10;55.10;;;;;;5078313;28;20434;-73
2021/05/05 09:47:51;;;;;;;4.05;1.35;;;14.20;55.50;;;;;;5087589;28;20039;-77
2021/05/05 09:50:38;;;;;;;2.28;1.60;;;14.20;55.20;;;;;;5065574;28;20029;-71
2021/05/05 09:53:23;;;;;;;9.35;4.05;;;14.20;54.60;;;;;;5037816;28;20074;-69
2021/05/05 09:55:52;;;;;;;5.88;2.28;;;14.20;54.70;;;;;;5071858;28;20116;-69
2021/05/05 09:58:35;;;;;;;7.18;3.72;;;14.30;54.80;;;;;;5073408;28;20029;-70
2021/05/05 10:01:03;;;;;;;11.75;6.15;;;14.30;54.90;;;;;;5059630;28;20053;-70
2021/05/05 10:03:36;;;;;;;18.90;9.15;;;14.20;58.70;;;;;;5064227;28;20130;-69
2021/05/05 10:06:19;;;;;;;8.02;3.80;;;14.00;62.10;;;;;;5079051;28;20107;-69
2021/05/05 10:08:45;;;;;;;6.75;4.03;;;13.80;63.40;;;;;;5045054;28;20036;-71
2021/05/05 10:11:11;;;;;;;8.05;3.63;;;13.50;65.30;;;;;;5068125;28;20021;-70
2021/05/05 10:13:38;;;;;;;3.20;1.75;;;13.30;66.50;;;;;;5072886;28;20056;-69
2021/05/05 10:16:04;;;;;;;2.65;1.67;;;13.20;67.20;;;;;;5060342;28;20025;-73
2021/05/05 10:18:30;;;;;;;12.07;5.90;;;13.30;68.30;;;;;;5069274;28;20431;-74
2021/05/05 10:20:57;;;;;;;5.45;2.67;;;13.30;69.70;;;;;;5074209;28;20052;-75
2021/05/05 10:23:23;;;;;;;5.80;3.28;;;13.30;71.10;;;;;;5075246;28;20509;-75
2021/05/05 10:25:50;;;;;;;4.47;2.45;;;13.40;70.60;;;;;;5074790;28;20115;-74
2021/05/05 10:28:17;;;;;;;6.63;3.95;;;13.40;71.10;;;;;;5057077;28;20391;-74
2021/05/05 10:30:43;;;;;;;3.15;2.35;;;13.50;71.80;;;;;;5069564;28;20017;-75
2021/05/05 10:33:18;;;;;;;5.32;3.10;;;13.50;72.10;;;;;;5073825;28;20473;-74
2021/05/05 10:35:43;;;;;;;;;;;13.60;73.00;;;;;;5069743;28;20032;-73
2021/05/05 10:38:33;;;;;;;3.15;2.10;;;13.70;72.10;;;;;;5047157;28;20000;-75
2021/05/05 10:41:10;;;;;;;5.55;2.10;;;13.70;72.60;;;;;;5055376;28;20056;-74
2021/05/05 10:43:46;;;;;;;7.15;3.60;;;13.90;72.60;;;;;;5073168;28;20035;-73
2021/05/05 10:46:24;;;;;;;6.93;3.40;;;14.00;71.50;;;;;;5081021;28;20621;-74
2021/05/05 10:49:13;;;;;;;5.55;2.22;;;14.10;70.30;;;;;;5067378;28;20032;-74
2021/05/05 10:51:44;;;;;;;3.55;1.83;;;14.20;69.50;;;;;;5072979;28;20384;-74
2021/05/05 10:54:11;;;;;;;4.05;1.95;;;14.20;67.70;;;;;;5071948;28;20426;-74
2021/05/05 10:56:36;;;;;;;4.55;2.08;;;14.30;67.90;;;;;;5072071;28;20033;-73
2021/05/05 10:59:07;;;;;;;4.03;2.00;;;14.30;67.70;;;;;;5071132;28;20485;-74
2021/05/05 11:01:42;;;;;;;3.70;2.13;;;14.30;65.30;;;;;;5070815;28;20075;-74
2021/05/05 11:04:13;;;;;;;2.88;1.20;;;14.40;63.50;;;;;;5051452;28;20031;-73
2021/05/05 11:06:40;;;;;;;3.60;1.35;;;14.50;62.70;;;;;;5074598;28;20376;-73
2021/05/05 11:09:11;;;;;;;3.80;1.98;;;14.50;62.80;;;;;;5047861;28;20068;-74
2021/05/05 11:11:48;;;;;;;4.43;1.67;;;14.60;63.00;;;;;;5072632;28;20024;-73
2021/05/05 11:14:22;;;;;;;5.75;2.45;;;14.70;62.30;;;;;;5071294;28;20037;-74
2021/05/05 11:17:05;;;;;;;4.78;2.55;;;14.70;61.80;;;;;;5054980;28;20798;-74
2021/05/05 11:19:37;;;;;;;4.53;1.83;;;14.80;60.40;;;;;;5075047;28;20131;-74
2021/05/05 11:22:07;;;;;;;5.28;1.83;;;14.80;59.80;;;;;;5066584;28;20509;-74
2021/05/05 11:24:35;;;;;;;2.03;1.30;;;14.90;59.40;;;;;;5079944;28;20417;-73
2021/05/05 11:27:03;;;;;;;3.72;1.70;;;14.90;57.60;;;;;;5068791;28;20384;-74
2021/05/05 11:29:40;;;;;;;4.35;1.38;;;14.90;57.70;;;;;;5055330;28;20491;-74
2021/05/05 11:32:08;;;;;;;5.80;1.60;;;15.10;57.60;;;;;;5072184;28;20033;-74
2021/05/05 11:34:39;;;;;;;6.07;1.27;;;15.10;57.00;;;;;;5070786;28;20028;-73
2021/05/05 11:37:09;;;;;;;4.32;2.08;;;15.10;54.40;;;;;;5070927;28;20028;-74
2021/05/05 11:39:37;;;;;;;2.63;1.15;;;15.10;54.10;;;;;;5073270;28;20109;-73
2021/05/05 11:42:10;;;;;;;3.50;1.15;;;15.10;54.20;;;;;;5061512;28;20360;-73
2021/05/05 11:44:36;;;;;;;2.88;1.05;;;15.10;52.50;;;;;;5070764;28;20043;-72
2021/05/05 11:47:10;;;;;;;3.83;0.80;;;15.10;53.20;;;;;;5070419;28;20033;-73
2021/05/05 11:49:40;;;;;;;3.15;1.02;;;15.20;53.10;;;;;;5070363;28;20059;-74
2021/05/05 11:52:30;;;;;;;4.13;1.30;;;15.10;51.90;;;;;;5072128;28;20172;-73
2021/05/05 11:54:58;;;;;;;3.83;1.10;;;15.10;51.60;;;;;;5064412;28;20132;-73
2021/05/05 11:57:29;;;;;;;3.38;1.23;;;15.00;50.80;;;;;;5071034;28;20032;-73
2021/05/05 12:00:33;;;;;;;5.05;1.38;;;15.00;50.20;;;;;;5070073;28;20121;-74
2021/05/05 12:03:23;;;;;;;3.13;1.20;;;15.00;50.70;;;;;;5055469;28;20447;-73
2021/05/05 12:06:07;;;;;;;1.77;1.02;;;15.00;51.50;;;;;;5070913;28;20446;-73
2021/05/05 12:08:52;;;;;;;4.00;1.00;;;15.00;48.90;;;;;;5069281;28;20496;-72
2021/05/05 12:11:37;;;;;;;4.28;1.30;;;15.00;48.80;;;;;;5058850;28;20054;-73
2021/05/05 12:14:28;;;;;;;2.88;0.88;;;15.00;48.00;;;;;;5070885;28;20511;-73
2021/05/05 12:16:56;;;;;;;2.55;1.00;;;15.10;48.60;;;;;;5070938;28;20055;-72
2021/05/05 12:19:24;;;;;;;6.55;0.98;;;15.10;48.60;;;;;;5073416;28;20028;-71
2021/05/05 12:21:50;;;;;;;1.58;1.20;;;15.20;48.70;;;;;;5049925;28;20043;-73
2021/05/05 12:24:16;;;;;;;2.95;1.10;;;15.30;48.10;;;;;;5070753;28;20028;-73
2021/05/05 12:26:41;;;;;;;3.75;1.10;;;15.40;48.40;;;;;;5070613;28;20029;-73
2021/05/05 12:29:08;;;;;;;5.40;1.20;;;15.50;48.30;;;;;;5052238;28;20020;-72
2021/05/05 12:31:38;;;;;;;6.53;1.52;;;15.50;48.00;;;;;;5038770;28;20079;-74
2021/05/05 12:34:07;;;;;;;5.82;1.42;;;15.50;47.90;;;;;;5062293;28;20043;-73
2021/05/05 12:36:40;;;;;;;1.92;1.10;;;15.50;47.10;;;;;;5070749;28;20432;-72
2021/05/05 12:39:10;;;;;;;2.95;1.40;;;15.40;47.00;;;;;;5070514;28;20038;-73
2021/05/05 12:41:43;;;;;;;2.47;1.20;;;15.40;47.00;;;;;;5070500;28;20095;-73
2021/05/05 12:44:09;;;;;;;2.65;1.10;;;15.40;46.90;;;;;;5071138;28;20032;-75
2021/05/05 12:49:32;;;;;;;3.10;1.50;;;15.50;47.00;;;;;;5071458;28;20036;-69
2021/05/05 12:51:57;;;;;;;4.32;1.40;;;15.50;47.20;;;;;;5065067;28;20603;-70
2021/05/05 12:54:31;;;;;;;3.25;1.23;;;15.60;47.10;;;;;;5070718;28;20124;-69
2021/05/05 12:56:57;;;;;;;2.70;1.38;;;15.60;46.70;;;;;;5063511;28;20033;-71
2021/05/05 12:59:28;;;;;;;2.95;1.35;;;15.60;47.20;;;;;;5072461;28;20111;-71
2021/05/05 13:02:04;;;;;;;2.65;1.25;;;15.60;47.10;;;;;;5084439;28;20385;-71
2021/05/05 13:04:42;;;;;;;1.52;1.20;;;15.60;47.50;;;;;;5069062;28;20071;-71
2021/05/05 13:07:26;;;;;;;3.83;1.45;;;15.60;47.50;;;;;;5069870;28;20029;-78
2021/05/05 13:10:14;;;;;;;7.25;1.70;;;15.70;48.00;;;;;;5051828;28;20036;-77
2021/05/05 13:12:45;;;;;;;4.78;1.45;;;15.70;48.80;;;;;;5070485;28;20060;-76
2021/05/05 13:15:31;;;;;;;3.97;1.42;;;15.70;48.40;;;;;;5053013;28;20056;-77
2021/05/05 13:19:07;;;;;;;3.72;1.50;;;15.70;48.80;;;;;;5070505;28;20047;-74
2021/05/05 13:32:57;;;;;;;1.98;1.33;;;16.00;49.90;;;;;;5069025;28;20040;-76
2021/05/05 13:35:41;;;;;;;2.83;1.30;;;16.10;50.20;;;;;;5076987;28;20496;-77
2021/05/05 13:38:14;;;;;;;1.98;1.08;;;16.10;49.00;;;;;;5068947;28;20112;-77
2021/05/05 13:40:50;;;;;;;2.97;1.02;;;16.20;48.40;;;;;;5068050;28;20028;-78
2021/05/05 13:43:29;;;;;;;2.00;1.33;;;16.20;47.90;;;;;;5071391;28;20060;-77
2021/05/05 13:46:04;;;;;;;2.47;1.30;;;16.20;47.00;;;;;;5068445;28;20032;-77
2021/05/05 13:48:45;;;;;;;1.65;1.10;;;16.20;47.80;;;;;;5068336;28;20035;-77
2021/05/05 13:51:13;;;;;;;3.20;1.42;;;16.20;47.70;;;;;;5070134;28;20124;-77
2021/05/05 13:53:45;;;;;;;4.63;1.40;;;16.20;47.60;;;;;;5068904;28;20064;-77
2021/05/05 13:56:11;;;;;;;2.70;1.42;;;16.20;47.90;;;;;;5076212;28;20044;-77
2021/05/05 13:58:36;;;;;;;3.05;1.45;;;16.30;47.90;;;;;;5069186;28;20028;-78
2021/05/05 14:01:02;;;;;;;3.00;1.52;;;16.40;47.90;;;;;;5063043;28;20048;-76